Time;durP1;ratioP1;P1;durP2;ratioP2;P2;SDS_P1;SDS_P2;PMS_P1;PMS_P2;Temp;Humidity;BMP_temperature;BMP_pressure;BME280_temperature;BME280_humidity;BME280_pressure;Samples;Min_cycle;Max_cycle;Signal;HPM_P1;HPM_P2
2023/07/16 00:00:22;;;;;;;12.35;9.18;;;;;;;18.92;100.00;95570.06;1034666;28;20056;-75
2023/07/16 00:00:52;;;;;;;13.88;9.70;;;;;;;18.93;100.00;95571.59;1034250;28;20858;-73
2023/07/16 00:01:23;;;;;;;12.98;8.57;;;;;;;18.90;100.00;95558.94;1036604;28;20099;-75
2023/07/16 00:01:53;;;;;;;13.85;8.27;;;;;;;18.92;100.00;95562.09;1037189;28;20057;-75
2023/07/16 00:02:24;;;;;;;13.05;9.13;;;;;;;18.97;100.00;95569.09;1038576;28;20619;-75
2023/07/16 00:02:54;;;;;;;17.33;8.65;;;;;;;18.87;100.00;95559.59;1040064;28;20059;-74
2023/07/16 00:03:25;;;;;;;14.20;9.27;;;;;;;18.95;100.00;95566.75;1034413;28;20108;-74
2023/07/16 00:03:55;;;;;;;17.50;9.75;;;;;;;18.96;100.00;95576.28;1032552;28;20090;-75
2023/07/16 00:04:26;;;;;;;12.35;8.77;;;;;;;18.96;100.00;95578.94;1034190;28;20077;-75
2023/07/16 00:04:56;;;;;;;13.45;8.40;;;;;;;18.93;100.00;95584.91;1035894;28;20511;-74
2023/07/16 00:05:26;;;;;;;15.85;9.13;;;;;;;18.88;100.00;95573.66;1038333;28;20033;-74
2023/07/16 00:05:57;;;;;;;15.45;8.60;;;;;;;18.80;100.00;95557.44;1034679;28;20037;-74
2023/07/16 00:06:27;;;;;;;15.93;8.65;;;;;;;18.95;100.00;95577.41;1032560;28;20037;-75
2023/07/16 00:07:00;;;;;;;14.65;8.65;;;;;;;18.95;100.00;95577.41;1037794;28;20119;-76
2023/07/16 00:07:30;;;;;;;10.50;8.15;;;;;;;18.98;100.00;95587.41;1034719;28;20076;-74
2023/07/16 00:08:01;;;;;;;17.05;8.27;;;;;;;18.90;100.00;95590.84;1038180;28;20549;-74
2023/07/16 00:08:31;;;;;;;12.75;8.23;;;;;;;18.89;100.00;95594.63;1036446;28;20030;-76
2023/07/16 00:09:03;;;;;;;14.95;7.97;;;;;;;18.92;100.00;95603.84;1037471;28;20105;-75
2023/07/16 00:09:33;;;;;;;12.57;8.52;;;;;;;18.90;100.00;95598.84;1046600;28;20032;-75
2023/07/16 00:10:04;;;;;;;15.13;9.30;;;;;;;18.93;100.00;95606.19;1034893;28;20473;-76
2023/07/16 00:10:37;;;;;;;14.80;7.97;;;;;;;18.97;100.00;95623.03;1031127;28;20018;-74
2023/07/16 00:11:07;;;;;;;13.27;8.68;;;;;;;18.98;100.00;95621.97;1030134;28;20038;-76
2023/07/16 00:11:38;;;;;;;11.85;8.63;;;;;;;19.02;100.00;95619.44;1035423;28;20038;-75
2023/07/16 00:12:09;;;;;;;12.48;8.98;;;;;;;19.03;100.00;95627.09;1036571;28;20033;-74
2023/07/16 00:12:39;;;;;;;17.02;8.80;;;;;;;19.01;100.00;95624.00;1037307;28;20029;-75
2023/07/16 00:13:10;;;;;;;16.52;10.13;;;;;;;19.06;100.00;95625.69;1029597;28;20567;-75
2023/07/16 00:13:45;;;;;;;16.75;9.27;;;;;;;19.02;100.00;95627.44;1026654;28;20042;-74
2023/07/16 00:14:17;;;;;;;15.65;8.50;;;;;;;19.04;100.00;95644.59;1030148;28;20034;-74
2023/07/16 00:14:47;;;;;;;13.18;8.38;;;;;;;19.03;100.00;95650.25;1031427;28;20025;-74
2023/07/16 00:15:18;;;;;;;13.50;8.50;;;;;;;19.02;100.00;95657.47;1038170;28;20045;-76
2023/07/16 00:15:48;;;;;;;12.20;8.10;;;;;;;19.03;100.00;95664.34;1040572;28;20052;-75
2023/07/16 00:16:19;;;;;;;15.45;8.88;;;;;;;19.02;100.00;95670.75;1046564;28;20474;-75
2023/07/16 00:16:49;;;;;;;15.95;8.90;;;;;;;18.99;100.00;95676.72;1037986;28;20029;-76
2023/07/16 00:17:20;;;;;;;20.20;9.50;;;;;;;18.98;100.00;95683.13;1034811;28;20550;-77
2023/07/16 00:17:50;;;;;;;12.40;9.85;;;;;;;18.97;100.00;95692.19;1038491;28;20021;-75
2023/07/16 00:18:21;;;;;;;11.88;9.20;;;;;;;18.94;100.00;95692.81;1038473;28;20037;-75
2023/07/16 00:18:51;;;;;;;13.40;9.38;;;;;;;18.94;100.00;95703.47;1034484;28;20507;-74
2023/07/16 00:19:22;;;;;;;14.93;9.40;;;;;;;18.92;100.00;95710.22;1045817;28;20035;-75
2023/07/16 00:19:52;;;;;;;15.90;9.35;;;;;;;18.85;100.00;95718.66;1042404;28;20040;-74
2023/07/16 00:20:26;;;;;;;12.73;9.85;;;;;;;18.86;100.00;95738.84;1039080;28;20477;-75
2023/07/16 00:20:56;;;;;;;17.67;8.98;;;;;;;18.82;100.00;95749.31;1040302;28;20029;-76
2023/07/16 00:21:27;;;;;;;22.23;9.55;;;;;;;18.80;100.00;95764.00;1037658;28;20038;-75
2023/07/16 00:21:57;;;;;;;13.45;8.85;;;;;;;18.81;100.00;95774.34;1026993;28;20824;-75
2023/07/16 00:22:27;;;;;;;16.90;9.40;;;;;;;18.83;100.00;95793.41;1027708;28;20054;-76
2023/07/16 00:22:58;;;;;;;19.98;9.85;;;;;;;18.70;100.00;95783.69;1034384;28;20155;-76
2023/07/16 00:23:28;;;;;;;19.25;10.90;;;;;;;18.84;100.00;95799.50;1031671;28;20054;-76
2023/07/16 00:23:59;;;;;;;17.50;10.13;;;;;;;18.84;100.00;95799.50;1030363;28;20034;-76
2023/07/16 00:24:29;;;;;;;16.38;9.40;;;;;;;18.84;100.00;95796.84;1033064;28;20029;-74
2023/07/16 00:25:00;;;;;;;22.65;9.45;;;;;;;18.83;100.00;95784.66;1031756;28;20026;-76
2023/07/16 00:25:30;;;;;;;42.67;10.75;;;;;;;18.86;100.00;95794.66;1034835;28;20072;-76
2023/07/16 00:26:01;;;;;;;22.83;9.80;;;;;;;18.86;100.00;95802.66;1034741;28;20036;-77
2023/07/16 00:26:31;;;;;;;19.67;9.65;;;;;;;18.85;100.00;95811.72;1034484;28;20018;-75
2023/07/16 00:27:03;;;;;;;15.65;9.15;;;;;;;18.83;100.00;95820.00;1034555;28;20041;-75
2023/07/16 00:27:34;;;;;;;19.92;9.45;;;;;;;18.79;100.00;95820.94;1034022;28;20025;-76
2023/07/16 00:28:04;;;;;;;26.17;11.32;;;;;;;18.79;100.00;95826.28;1035354;28;20049;-76
2023/07/16 00:28:35;;;;;;;23.95;10.05;;;;;;;18.79;100.00;95823.59;1034450;28;20082;-76
2023/07/16 00:29:05;;;;;;;17.75;9.15;;;;;;;18.79;100.00;95820.94;1033393;28;20405;-76
2023/07/16 00:29:36;;;;;;;25.00;9.63;;;;;;;18.80;100.00;95820.63;1035188;28;20103;-76
2023/07/16 00:30:07;;;;;;;21.92;10.50;;;;;;;18.83;100.00;95824.53;1033800;28;20507;-76
2023/07/16 00:30:37;;;;;;;24.02;10.90;;;;;;;18.85;100.00;95833.00;1030141;28;20018;-76
2023/07/16 00:31:08;;;;;;;29.45;10.90;;;;;;;18.82;100.00;95828.31;1029784;28;20030;-78
2023/07/16 00:31:38;;;;;;;15.15;9.70;;;;;;;18.84;100.00;95836.72;1023658;28;20031;-76
2023/07/16 00:32:09;;;;;;;16.05;10.07;;;;;;;18.78;100.00;95833.47;1033481;28;20045;-76
2023/07/16 00:32:39;;;;;;;20.45;9.55;;;;;;;18.79;100.00;95826.28;1030320;28;20041;-75
2023/07/16 00:33:10;;;;;;;23.48;10.48;;;;;;;18.76;100.00;95813.59;1038151;28;20479;-75
2023/07/16 00:33:40;;;;;;;14.10;8.95;;;;;;;18.81;100.00;95813.44;1031906;28;20022;-77
2023/07/16 00:34:12;;;;;;;23.15;10.20;;;;;;;18.89;100.00;95827.84;1025977;28;20023;-75
2023/07/16 00:34:43;;;;;;;19.45;9.93;;;;;;;18.87;100.00;95825.47;1031186;28;20033;-76
2023/07/16 00:35:13;;;;;;;24.35;10.02;;;;;;;18.80;100.00;95814.53;1030832;28;20022;-75
2023/07/16 00:35:49;;;;;;;19.15;9.07;;;;;;;18.85;100.00;95825.03;1033961;28;20970;-74
2023/07/16 00:36:19;;;;;;;14.20;9.73;;;;;;;18.86;100.00;95823.91;1045095;28;20013;-75
2023/07/16 00:36:50;;;;;;;15.07;9.13;;;;;;;18.85;100.00;95825.03;1044744;28;20395;-75
2023/07/16 00:37:20;;;;;;;17.50;10.10;;;;;;;18.87;100.00;95817.50;1037431;28;20127;-75
2023/07/16 00:37:51;;;;;;;18.77;9.90;;;;;;;18.86;100.00;95813.28;1035496;28;20026;-77
2023/07/16 00:38:22;;;;;;;16.73;9.40;;;;;;;18.87;100.00;95830.78;1034017;28;20033;-77
2023/07/16 00:38:52;;;;;;;15.55;9.10;;;;;;;18.87;100.00;95825.47;1032050;28;20087;-75
2023/07/16 00:39:22;;;;;;;15.38;9.00;;;;;;;18.87;100.00;95838.78;1034358;28;20072;-75
2023/07/16 00:39:53;;;;;;;16.83;9.20;;;;;;;18.89;100.00;95836.59;1031734;28;20841;-75
2023/07/16 00:40:23;;;;;;;15.40;9.32;;;;;;;18.76;100.00;95817.03;1029925;28;20026;-75
2023/07/16 00:40:54;;;;;;;15.85;9.20;;;;;;;18.81;100.00;95827.53;1030539;28;20026;-74
2023/07/16 00:41:24;;;;;;;18.67;9.70;;;;;;;18.87;100.00;95828.13;1030394;28;20030;-75
2023/07/16 00:41:55;;;;;;;16.77;9.63;;;;;;;18.72;100.00;95812.66;1034582;28;20026;-76
2023/07/16 00:42:25;;;;;;;12.77;9.60;;;;;;;18.89;100.00;95839.25;1037058;28;20565;-75
2023/07/16 00:42:56;;;;;;;11.80;8.63;;;;;;;18.87;100.00;95841.44;1038918;28;20034;-76
2023/07/16 00:43:26;;;;;;;14.30;9.13;;;;;;;18.87;100.00;95840.66;1041933;28;20398;-76
2023/07/16 00:43:57;;;;;;;16.27;8.93;;;;;;;18.91;100.00;95853.00;1034826;28;20095;-76
2023/07/16 00:44:27;;;;;;;15.70;8.95;;;;;;;18.86;100.00;95844.41;1038994;28;20033;-77
2023/07/16 00:44:58;;;;;;;12.68;8.68;;;;;;;18.90;100.00;95858.66;1039049;28;20467;-75
2023/07/16 00:45:28;;;;;;;15.35;8.88;;;;;;;18.89;100.00;95857.88;1041398;28;20033;-76
2023/07/16 00:45:59;;;;;;;15.23;8.05;;;;;;;18.83;100.00;95854.56;1038838;28;20558;-76
2023/07/16 00:46:29;;;;;;;10.77;8.50;;;;;;;18.85;100.00;95856.94;1037517;28;20033;-76
2023/07/16 00:46:59;;;;;;;12.88;8.60;;;;;;;18.93;100.00;95873.97;1038424;28;20708;-77
2023/07/16 00:47:30;;;;;;;15.27;9.10;;;;;;;18.86;100.00;95855.81;1030888;28;20435;-75
2023/07/16 00:48:00;;;;;;;15.48;8.27;;;;;;;18.92;100.00;95869.75;1030924;28;20023;-76
2023/07/16 00:48:31;;;;;;;11.00;7.82;;;;;;;18.87;100.00;95859.25;1030980;28;20022;-77
2023/07/16 00:49:01;;;;;;;15.88;8.82;;;;;;;18.90;100.00;95858.66;1034452;28;20026;-76
2023/07/16 00:49:32;;;;;;;13.00;7.97;;;;;;;18.94;100.00;95870.22;1030604;28;20436;-77
2023/07/16 00:50:02;;;;;;;14.60;9.00;;;;;;;18.95;100.00;95864.59;1034701;28;20099;-79
2023/07/16 00:50:34;;;;;;;13.88;8.15;;;;;;;18.90;100.00;95851.44;1030960;28;20041;-75
2023/07/16 00:51:04;;;;;;;18.55;9.10;;;;;;;18.91;100.00;95853.00;1041715;28;20028;-78
2023/07/16 00:51:35;;;;;;;14.20;8.52;;;;;;;18.87;100.00;95845.97;1039135;28;20030;-77
2023/07/16 00:52:07;;;;;;;19.80;9.23;;;;;;;18.91;100.00;95853.00;1030897;28;20033;-77
2023/07/16 00:52:37;;;;;;;14.52;8.90;;;;;;;18.90;100.00;95845.34;1034826;28;20030;-76
2023/07/16 00:53:08;;;;;;;12.85;8.77;;;;;;;18.91;100.00;95853.00;1034337;28;21087;-75
2023/07/16 00:53:39;;;;;;;13.52;8.57;;;;;;;18.94;100.00;95855.03;1031174;28;20648;-77
2023/07/16 00:54:10;;;;;;;14.98;9.52;;;;;;;18.89;100.00;95847.22;1030922;28;20050;-75
2023/07/16 00:54:41;;;;;;;12.75;8.07;;;;;;;18.86;100.00;95849.72;1038956;28;20017;-76
2023/07/16 00:55:11;;;;;;;15.77;8.18;;;;;;;18.93;100.00;95858.78;1042897;28;20024;-77
2023/07/16 00:55:41;;;;;;;17.83;8.85;;;;;;;18.85;100.00;95848.97;1038826;28;20025;-76
2023/07/16 00:56:12;;;;;;;15.95;9.35;;;;;;;18.93;100.00;95858.03;1030559;28;20022;-76
2023/07/16 00:56:42;;;;;;;10.77;8.32;;;;;;;18.87;100.00;95843.31;1034171;28;20026;-75
2023/07/16 00:57:13;;;;;;;13.48;8.50;;;;;;;18.90;100.00;95851.44;1034367;28;20443;-76
2023/07/16 00:57:43;;;;;;;14.32;8.57;;;;;;;18.93;100.00;95856.13;1027562;28;20030;-77
2023/07/16 00:58:14;;;;;;;14.52;7.35;;;;;;;18.95;100.00;95853.97;1030210;28;20065;-77
2023/07/16 00:58:44;;;;;;;12.48;8.02;;;;;;;18.92;100.00;95854.59;1030153;28;20034;-76
2023/07/16 00:59:15;;;;;;;11.15;8.10;;;;;;;18.95;100.00;95856.63;1034925;28;20018;-76
2023/07/16 00:59:45;;;;;;;12.02;8.00;;;;;;;18.95;100.00;95853.97;1031864;28;20034;-77
2023/07/16 01:00:16;;;;;;;12.13;8.15;;;;;;;19.02;100.00;95859.59;1030675;28;20089;-77
2023/07/16 01:00:47;;;;;;;15.15;7.28;;;;;;;19.02;100.00;95858.81;1034812;28;20018;-77
2023/07/16 01:01:18;;;;;;;9.75;7.35;;;;;;;19.01;100.00;95863.34;1038472;28;20033;-77
2023/07/16 01:01:48;;;;;;;14.68;7.18;;;;;;;18.93;100.00;95855.38;1038773;28;20755;-76
2023/07/16 01:02:18;;;;;;;12.13;7.20;;;;;;;18.99;100.00;95870.06;1039021;28;20047;-76
2023/07/16 01:02:49;;;;;;;19.05;7.55;;;;;;;18.98;100.00;95869.28;1040498;28;20033;-76
2023/07/16 01:03:19;;;;;;;12.13;7.20;;;;;;;19.03;100.00;95871.78;1034914;28;20044;-77
2023/07/16 01:03:50;;;;;;;11.23;6.50;;;;;;;19.01;100.00;95868.66;1031373;28;20026;-76
2023/07/16 01:04:21;;;;;;;11.00;6.65;;;;;;;19.00;100.00;95872.41;1030810;28;20161;-75
2023/07/16 01:04:51;;;;;;;12.32;6.88;;;;;;;19.00;100.00;95883.03;1030805;28;20030;-77
2023/07/16 01:05:22;;;;;;;14.73;7.38;;;;;;;19.01;100.00;95871.34;1032784;28;20033;-76
2023/07/16 01:06:05;;;;;;;13.13;7.22;;;;;;;19.02;100.00;95883.53;1035040;28;20029;-75
2023/07/16 01:06:40;;;;;;;12.77;7.25;;;;;;;19.02;100.00;95875.53;1035229;28;20032;-77
2023/07/16 01:07:11;;;;;;;7.35;6.05;;;;;;;18.96;100.00;95876.00;1031936;28;20034;-76
2023/07/16 01:07:43;;;;;;;10.05;6.68;;;;;;;19.03;100.00;95877.09;1035137;28;20029;-76
2023/07/16 01:08:14;;;;;;;8.30;6.38;;;;;;;19.04;100.00;95877.88;1035053;28;20125;-75
2023/07/16 01:08:57;;;;;;;12.02;6.78;;;;;;;18.98;100.00;95863.16;1032664;28;20072;-76
2023/07/16 01:09:28;;;;;;;10.90;6.38;;;;;;;19.01;100.00;95871.34;1026746;28;20022;-77
2023/07/16 01:09:59;;;;;;;9.23;5.68;;;;;;;18.94;100.00;95849.72;1039048;28;20027;-77
2023/07/16 01:10:29;;;;;;;11.73;6.32;;;;;;;19.06;100.00;95865.84;1031047;28;20034;-77
2023/07/16 01:11:00;;;;;;;8.73;5.95;;;;;;;18.94;100.00;95852.38;1026692;28;20022;-76
2023/07/16 01:11:30;;;;;;;10.98;6.88;;;;;;;19.04;100.00;95867.25;1026584;28;20071;-77
2023/07/16 01:12:01;;;;;;;9.73;6.35;;;;;;;19.00;100.00;95853.78;1030664;28;20022;-76
2023/07/16 01:12:31;;;;;;;11.48;6.15;;;;;;;18.94;100.00;95855.03;1036429;28;20085;-78
2023/07/16 01:13:02;;;;;;;14.77;6.82;;;;;;;19.00;100.00;95855.66;1031189;28;20477;-77
2023/07/16 01:13:32;;;;;;;19.95;7.60;;;;;;;19.04;100.00;95868.00;1034541;28;20021;-75
2023/07/16 01:14:03;;;;;;;9.65;6.65;;;;;;;19.07;100.00;95878.03;1035150;28;20049;-77
2023/07/16 01:14:33;;;;;;;9.20;6.40;;;;;;;19.05;100.00;95871.47;1027068;28;20015;-77
2023/07/16 01:15:04;;;;;;;9.90;6.45;;;;;;;19.08;100.00;95882.28;1035053;28;20013;-77
2023/07/16 01:15:35;;;;;;;11.95;6.60;;;;;;;19.00;100.00;95851.13;1030891;28;20061;-76
2023/07/16 01:16:05;;;;;;;11.43;6.47;;;;;;;19.08;100.00;95868.97;1035351;28;20017;-77
2023/07/16 01:16:36;;;;;;;8.68;6.57;;;;;;;19.06;100.00;95865.84;1035055;28;20549;-76
2023/07/16 01:17:07;;;;;;;10.10;6.38;;;;;;;19.11;100.00;95866.78;1035241;28;20180;-77
2023/07/16 01:17:37;;;;;;;9.55;6.47;;;;;;;19.08;100.00;95876.97;1030823;28;20016;-76
2023/07/16 01:18:07;;;;;;;11.73;7.65;;;;;;;19.02;100.00;95864.91;1031155;28;20026;-76
2023/07/16 01:18:38;;;;;;;11.90;6.13;;;;;;;19.06;100.00;95868.50;1031583;28;20029;-77
2023/07/16 01:19:13;;;;;;;8.40;5.78;;;;;;;19.01;100.00;95868.66;1041735;28;20029;-76
2023/07/16 01:19:43;;;;;;;11.45;6.38;;;;;;;19.03;100.00;95871.00;1043151;28;20164;-76
2023/07/16 01:20:14;;;;;;;8.82;6.28;;;;;;;19.07;100.00;95870.06;1034854;28;20033;-74
2023/07/16 01:20:44;;;;;;;8.85;5.88;;;;;;;19.00;100.00;95867.09;1027435;28;20027;-76
2023/07/16 01:21:15;;;;;;;8.90;6.30;;;;;;;19.01;100.00;95858.03;1027809;28;20049;-77
2023/07/16 01:22:27;;;;;;;10.82;6.60;;;;;;;19.05;100.00;95869.59;1031656;28;20010;-76
2023/07/16 01:23:24;;;;;;;9.85;5.90;;;;;;;19.07;100.00;95872.72;1029862;28;20704;-76
2023/07/16 01:24:21;;;;;;;12.90;6.20;;;;;;;19.04;100.00;95873.34;1022255;28;20921;-78
2023/07/16 01:25:09;;;;;;;8.25;5.40;;;;;;;19.04;100.00;95885.84;1030164;28;20968;-77
2023/07/16 01:26:33;;;;;;;7.95;5.88;;;;;;;19.03;100.00;95871.78;1038242;28;20025;-76
2023/07/16 01:27:52;;;;;;;12.10;6.47;;;;;;;19.07;100.00;95877.25;1026003;28;20039;-76
2023/07/16 01:28:50;;;;;;;13.65;5.70;;;;;;;19.02;100.00;95886.19;1022284;29;20033;-79
2023/07/16 01:29:30;;;;;;;11.07;6.38;;;;;;;19.01;100.00;95884.63;1027396;28;20031;-77
2023/07/16 01:30:05;;;;;;;8.07;6.32;;;;;;;19.00;100.00;95898.22;1028655;28;20066;-77
2023/07/16 01:30:37;;;;;;;11.52;6.30;;;;;;;18.96;100.00;95898.06;1025962;28;20031;-76
2023/07/16 01:31:07;;;;;;;9.85;6.22;;;;;;;18.90;100.00;95888.66;1017827;29;20034;-76
2023/07/16 01:31:37;;;;;;;9.68;6.25;;;;;;;18.96;100.00;95897.28;1014307;29;20055;-77
2023/07/16 01:32:08;;;;;;;10.02;6.57;;;;;;;18.95;100.00;95903.72;1016398;29;20038;-77
2023/07/16 01:32:38;;;;;;;9.18;6.50;;;;;;;18.93;100.00;95903.22;1022734;28;20120;-77
2023/07/16 01:33:10;;;;;;;9.52;6.05;;;;;;;18.90;100.00;95904.63;1031130;28;20513;-75
2023/07/16 01:33:40;;;;;;;10.70;6.25;;;;;;;18.92;100.00;95907.75;1035092;28;20017;-76
2023/07/16 01:34:11;;;;;;;9.48;6.65;;;;;;;18.93;100.00;95911.19;1033849;28;20560;-77
2023/07/16 01:34:41;;;;;;;11.50;7.00;;;;;;;18.89;100.00;95908.38;1035207;28;20026;-77
2023/07/16 01:35:12;;;;;;;12.70;7.47;;;;;;;18.91;100.00;95903.53;1030664;28;20085;-75
2023/07/16 01:35:42;;;;;;;8.90;6.93;;;;;;;18.91;100.00;95916.81;1031207;28;20121;-77
2023/07/16 01:36:13;;;;;;;10.73;7.07;;;;;;;18.92;100.00;95918.41;1040554;28;20029;-77
2023/07/16 01:36:44;;;;;;;10.43;6.85;;;;;;;18.87;100.00;95915.88;1038009;28;20025;-76
2023/07/16 01:37:14;;;;;;;16.58;7.47;;;;;;;18.87;100.00;95915.88;1030665;28;20076;-76
2023/07/16 01:37:44;;;;;;;10.98;7.22;;;;;;;18.83;100.00;95906.97;1036037;28;20026;-77
2023/07/16 01:38:18;;;;;;;15.05;7.18;;;;;;;18.89;100.00;95916.38;1038574;28;20032;-76
2023/07/16 01:38:48;;;;;;;16.27;7.20;;;;;;;18.88;100.00;95914.81;1034817;28;20026;-76
2023/07/16 01:39:19;;;;;;;16.02;7.00;;;;;;;18.87;100.00;95915.88;1031125;28;20807;-76
2023/07/16 01:39:49;;;;;;;11.35;6.90;;;;;;;18.80;100.00;95899.59;1030843;28;20018;-75
2023/07/16 01:40:20;;;;;;;18.27;7.63;;;;;;;18.84;100.00;95906.63;1034719;28;20025;-75
2023/07/16 01:40:50;;;;;;;14.25;7.30;;;;;;;18.87;100.00;95894.59;1034730;28;20033;-74
2023/07/16 01:41:21;;;;;;;11.18;7.18;;;;;;;18.85;100.00;95899.47;1032336;28;20034;-76
2023/07/16 01:41:51;;;;;;;10.27;7.03;;;;;;;18.83;100.00;95893.66;1038863;28;20040;-75
2023/07/16 01:42:22;;;;;;;14.90;7.38;;;;;;;18.81;100.00;95895.84;1038849;28;20125;-75
2023/07/16 01:42:52;;;;;;;22.15;7.78;;;;;;;18.81;100.00;95893.19;1036622;28;20030;-74
2023/07/16 01:43:22;;;;;;;12.85;7.03;;;;;;;18.79;100.00;95898.06;1038933;28;20029;-74
2023/07/16 01:43:53;;;;;;;14.23;8.45;;;;;;;18.78;100.00;95891.97;1035915;28;20549;-75
2023/07/16 01:44:23;;;;;;;12.80;7.85;;;;;;;18.77;100.00;95889.59;1035433;28;20172;-76
2023/07/16 01:44:54;;;;;;;13.07;7.50;;;;;;;18.76;100.00;95898.66;1028500;28;20038;-75
2023/07/16 01:45:24;;;;;;;20.13;8.00;;;;;;;18.77;100.00;95894.91;1024374;28;20023;-75
2023/07/16 01:45:55;;;;;;;13.13;8.38;;;;;;;18.74;100.00;95891.00;1036590;28;20032;-77
2023/07/16 01:46:25;;;;;;;12.90;7.80;;;;;;;18.75;100.00;95897.13;1033812;28;20022;-75
2023/07/16 01:47:13;;;;;;;13.48;8.43;;;;;;;18.71;100.00;95894.28;1030542;28;20459;-75
2023/07/16 01:48:01;;;;;;;14.73;7.55;;;;;;;18.69;100.00;95903.63;1035687;28;20014;-74
2023/07/16 01:48:35;;;;;;;12.00;8.32;;;;;;;18.67;100.00;95901.28;1032760;28;20025;-75
2023/07/16 01:49:06;;;;;;;12.32;8.02;;;;;;;18.68;100.00;95905.50;1031832;28;20014;-75
2023/07/16 01:49:36;;;;;;;14.15;8.05;;;;;;;18.65;100.00;95908.00;1041779;28;20029;-75
2023/07/16 01:50:07;;;;;;;9.38;7.55;;;;;;;18.62;100.00;95909.41;1034685;28;20052;-76
2023/07/16 01:50:38;;;;;;;18.73;8.73;;;;;;;18.65;100.00;95902.69;1027699;28;20046;-75
2023/07/16 01:51:08;;;;;;;17.63;8.77;;;;;;;18.63;100.00;95905.66;1030029;28;20023;-74
2023/07/16 01:51:39;;;;;;;12.90;8.77;;;;;;;18.60;100.00;95904.38;1033149;28;20049;-75
2023/07/16 01:52:09;;;;;;;14.25;9.18;;;;;;;18.56;100.00;95900.78;1030480;28;20030;-74
2023/07/16 01:52:40;;;;;;;17.23;8.90;;;;;;;18.61;100.00;95908.63;1034496;28;20022;-75
2023/07/16 01:53:10;;;;;;;15.73;8.50;;;;;;;18.58;100.00;95908.47;1035023;28;20022;-74
2023/07/16 01:53:41;;;;;;;16.33;9.23;;;;;;;18.60;100.00;95911.56;1034604;28;20534;-74
2023/07/16 01:54:11;;;;;;;13.38;9.18;;;;;;;18.63;100.00;95915.50;1034751;28;20037;-75
2023/07/16 01:54:42;;;;;;;12.98;8.90;;;;;;;18.60;100.00;95917.69;1034767;28;20049;-74
2023/07/16 01:55:12;;;;;;;12.35;9.45;;;;;;;18.56;100.00;95916.72;1042665;28;20099;-74
2023/07/16 01:55:43;;;;;;;13.63;9.55;;;;;;;18.57;100.00;95912.19;1043000;28;20021;-74
2023/07/16 01:56:13;;;;;;;13.70;9.32;;;;;;;18.58;100.00;95919.09;1038713;28;20131;-75
2023/07/16 01:56:43;;;;;;;11.82;8.75;;;;;;;18.58;100.00;95911.13;1037347;28;20022;-73
2023/07/16 01:57:14;;;;;;;12.27;8.77;;;;;;;18.57;100.00;95912.97;1033307;28;20033;-75
2023/07/16 01:57:44;;;;;;;13.07;9.48;;;;;;;18.60;100.00;95912.34;1034558;28;20345;-74
2023/07/16 01:58:15;;;;;;;15.20;10.23;;;;;;;18.61;100.00;95908.63;1035719;28;20017;-74
2023/07/16 01:58:45;;;;;;;15.18;8.57;;;;;;;18.60;100.00;95912.34;1042595;28;20043;-74
2023/07/16 01:59:16;;;;;;;15.98;9.13;;;;;;;18.59;100.00;95916.13;1038897;28;20029;-74
2023/07/16 01:59:46;;;;;;;19.92;8.82;;;;;;;18.58;100.00;95916.44;1038874;28;20470;-74
2023/07/16 02:00:17;;;;;;;14.38;9.32;;;;;;;18.52;100.00;95905.16;1042933;28;20041;-74
2023/07/16 02:00:52;;;;;;;13.77;8.75;;;;;;;18.58;100.00;95914.56;1038839;28;20541;-75
2023/07/16 02:01:22;;;;;;;12.68;8.57;;;;;;;18.60;100.00;95912.34;1033280;28;20049;-75
2023/07/16 02:01:53;;;;;;;14.00;8.77;;;;;;;18.59;100.00;95910.81;1037175;28;20120;-75
2023/07/16 02:02:23;;;;;;;15.63;9.52;;;;;;;18.61;100.00;95919.25;1038466;28;20013;-75
2023/07/16 02:02:53;;;;;;;16.45;9.73;;;;;;;18.62;100.00;95922.69;1043038;28;20020;-75
2023/07/16 02:03:24;;;;;;;10.68;8.45;;;;;;;18.62;100.00;95920.03;1036496;28;20002;-74
2023/07/16 02:03:54;;;;;;;13.27;9.23;;;;;;;18.62;100.00;95930.66;1038559;28;20499;-75
2023/07/16 02:04:25;;;;;;;12.13;9.13;;;;;;;18.58;100.00;95929.72;1034609;28;20022;-75
2023/07/16 02:04:55;;;;;;;16.42;9.90;;;;;;;18.58;100.00;95933.16;1034809;28;20388;-75
2023/07/16 02:05:26;;;;;;;13.90;8.95;;;;;;;18.51;100.00;95924.88;1038588;28;20026;-75
2023/07/16 02:05:56;;;;;;;18.00;9.88;;;;;;;18.57;100.00;95933.47;1036035;28;20026;-74
2023/07/16 02:06:27;;;;;;;13.63;9.60;;;;;;;18.56;100.00;95935.34;1030703;28;20033;-74
2023/07/16 02:06:57;;;;;;;14.73;10.05;;;;;;;18.60;100.00;95938.94;1040925;28;20052;-75
2023/07/16 02:07:28;;;;;;;12.00;9.45;;;;;;;18.63;100.00;95942.88;1037452;28;20021;-75
2023/07/16 02:07:58;;;;;;;15.57;9.20;;;;;;;18.66;100.00;95949.44;1034594;28;20044;-74
2023/07/16 02:08:29;;;;;;;16.10;10.00;;;;;;;18.68;100.00;95944.59;1032509;28;20018;-74
2023/07/16 02:08:59;;;;;;;18.83;10.43;;;;;;;18.69;100.00;95948.81;1038837;28;20080;-74
2023/07/16 02:09:30;;;;;;;20.33;10.70;;;;;;;18.65;100.00;95946.00;1038731;28;20017;-76
2023/07/16 02:10:00;;;;;;;11.10;9.10;;;;;;;18.61;100.00;95951.16;1030711;28;20033;-73
2023/07/16 02:10:31;;;;;;;14.68;10.30;;;;;;;18.64;100.00;95948.94;1038263;28;20030;-74
2023/07/16 02:11:01;;;;;;;13.70;9.52;;;;;;;18.66;100.00;95952.09;1034250;28;20069;-74
2023/07/16 02:11:31;;;;;;;15.88;9.82;;;;;;;18.66;100.00;95947.56;1030258;28;20472;-76
2023/07/16 02:12:02;;;;;;;13.93;9.98;;;;;;;18.67;100.00;95948.34;1034845;28;20061;-75
2023/07/16 02:12:33;;;;;;;18.30;10.60;;;;;;;18.67;100.00;95948.34;1037727;28;20159;-73
2023/07/16 02:13:03;;;;;;;13.80;9.93;;;;;;;18.68;100.00;95947.25;1042961;28;20076;-74
2023/07/16 02:13:33;;;;;;;13.52;10.45;;;;;;;18.61;100.00;95939.72;1042663;28;20079;-74
2023/07/16 02:14:04;;;;;;;13.30;9.07;;;;;;;18.63;100.00;95947.41;1038797;28;20024;-74
2023/07/16 02:14:34;;;;;;;15.85;9.85;;;;;;;18.63;100.00;95958.03;1038781;28;20073;-74
2023/07/16 02:15:05;;;;;;;17.52;9.82;;;;;;;18.64;100.00;95957.72;1030742;28;20674;-74
2023/07/16 02:15:36;;;;;;;13.65;9.98;;;;;;;18.67;100.00;95974.91;1034503;28;20416;-75
2023/07/16 02:16:06;;;;;;;17.15;10.18;;;;;;;18.63;100.00;95958.03;1034653;28;20026;-75
2023/07/16 02:16:37;;;;;;;17.02;11.35;;;;;;;18.61;100.00;95960.97;1034898;28;20380;-74
2023/07/16 02:17:07;;;;;;;17.45;10.73;;;;;;;18.63;100.00;95958.03;1034875;28;20148;-75
2023/07/16 02:17:38;;;;;;;14.00;9.40;;;;;;;18.66;100.00;95968.03;1038664;28;20088;-75
2023/07/16 02:18:08;;;;;;;17.55;10.55;;;;;;;18.58;100.00;95954.44;1034503;28;20018;-74
2023/07/16 02:18:39;;;;;;;17.30;10.93;;;;;;;18.61;100.00;95967.09;1038619;28;20021;-74
2023/07/16 02:19:09;;;;;;;21.33;10.70;;;;;;;18.69;100.00;95964.78;1027947;28;20042;-75
2023/07/16 02:19:39;;;;;;;15.45;9.60;;;;;;;18.67;100.00;95964.28;1030681;28;20014;-74
2023/07/16 02:20:10;;;;;;;12.32;7.90;;;;;;;18.64;100.00;95964.91;1026500;28;20089;-75
2023/07/16 02:20:41;;;;;;;12.20;7.18;;;;;;;18.63;100.00;95955.38;1026774;28;20047;-75
2023/07/16 02:21:11;;;;;;;14.88;8.05;;;;;;;18.64;100.00;95964.91;1033894;28;20021;-75
2023/07/16 02:21:41;;;;;;;10.77;7.50;;;;;;;18.59;100.00;95958.66;1027276;28;20019;-75
2023/07/16 02:22:12;;;;;;;10.23;6.70;;;;;;;18.55;100.00;95973.66;1031088;28;20549;-74
2023/07/16 02:22:42;;;;;;;8.70;5.75;;;;;;;18.49;100.00;95966.13;1029048;28;20022;-74
2023/07/16 02:23:13;;;;;;;5.07;4.03;;;;;;;18.37;100.00;95966.69;1030489;28;20035;-74
2023/07/16 02:23:43;;;;;;;6.68;3.97;;;;;;;18.40;100.00;95976.69;1039433;28;20025;-74
2023/07/16 02:24:14;;;;;;;7.68;4.60;;;;;;;18.30;100.00;95961.03;1038881;28;20065;-75
2023/07/16 02:24:45;;;;;;;6.97;3.85;;;;;;;18.33;100.00;95969.16;1042809;28;20028;-75
2023/07/16 02:25:15;;;;;;;4.53;3.70;;;;;;;18.32;100.00;95974.81;1034578;28;20088;-75
2023/07/16 02:25:46;;;;;;;8.60;4.00;;;;;;;18.20;100.00;95950.66;1034636;28;20022;-74
2023/07/16 02:26:16;;;;;;;5.15;3.70;;;;;;;18.31;100.00;95983.88;1030656;28;20027;-74